Time;durP1;ratioP1;P1;durP2;ratioP2;P2;SDS_P1;SDS_P2;PMS_P1;PMS_P2;Temp;Humidity;BMP_temperature;BMP_pressure;BME280_temperature;BME280_humidity;BME280_pressure;Samples;Min_cycle;Max_cycle;Signal;HPM_P1;HPM_P2
2023/05/15 00:00:13;;;;;;;30.33;19.70;;;;;;;15.01;67.83;101436.06;5020311;28;20056;-89
2023/05/15 00:02:40;;;;;;;30.85;20.17;;;;;;;14.97;67.69;101420.31;5017657;28;20419;-88
2023/05/15 00:05:06;;;;;;;29.17;19.70;;;;;;;14.87;68.77;101435.00;5007838;28;20040;-89
2023/05/15 00:07:32;;;;;;;28.50;19.23;;;;;;;14.90;68.34;101432.19;5037846;28;20113;-89
2023/05/15 00:09:58;;;;;;;30.58;19.45;;;;;;;14.71;68.63;101422.44;5021566;28;20113;-89
2023/05/15 00:12:23;;;;;;;29.90;19.25;;;;;;;14.71;68.71;101426.91;5005972;28;20535;-88
2023/05/15 00:14:48;;;;;;;30.33;20.08;;;;;;;14.46;69.91;101416.53;5023736;28;20176;-88
2023/05/15 00:17:13;;;;;;;28.27;19.95;;;;;;;14.41;69.84;101408.75;5022937;28;20064;-88
2023/05/15 00:19:39;;;;;;;30.13;19.73;;;;;;;14.45;69.57;101406.81;5023141;28;20507;-88
2023/05/15 00:22:04;;;;;;;33.33;20.65;;;;;;;14.41;69.59;101411.44;5009065;28;20040;-88
2023/05/15 00:24:30;;;;;;;28.75;20.27;;;;;;;14.41;70.00;101413.19;5008209;28;20044;-88
2023/05/15 00:26:55;;;;;;;30.65;19.50;;;;;;;14.36;69.71;101404.56;5026086;28;20168;-89
2023/05/15 00:29:20;;;;;;;27.27;18.67;;;;;;;14.39;69.78;101402.63;5026398;28;20392;-88
2023/05/15 00:31:45;;;;;;;30.17;20.10;;;;;;;14.42;69.63;101414.94;5004977;28;20025;-89
2023/05/15 00:34:11;;;;;;;28.48;19.70;;;;;;;14.42;69.79;101412.28;5025811;28;20090;-88
2023/05/15 00:36:36;;;;;;;28.50;20.60;;;;;;;14.34;69.79;101399.34;5007118;28;20363;-89
2023/05/15 00:39:01;;;;;;;26.98;19.58;;;;;;;14.32;69.76;101416.31;5005905;28;20041;-89
2023/05/15 00:41:30;;;;;;;32.78;19.88;;;;;;;14.29;69.15;101393.38;5027831;28;20090;-88
2023/05/15 00:43:56;;;;;;;32.15;20.30;;;;;;;14.13;69.76;101400.31;5025381;28;20030;-89
2023/05/15 00:46:23;;;;;;;27.15;19.80;;;;;;;14.09;69.59;101409.41;5027300;28;20025;-89
2023/05/15 00:48:52;;;;;;;30.55;20.90;;;;;;;14.08;69.88;101391.69;5025420;28;20042;-87
2023/05/15 00:51:17;;;;;;;31.80;21.33;;;;;;;14.06;69.66;101397.09;5029278;28;20040;-89
2023/05/15 00:53:43;;;;;;;34.33;20.88;;;;;;;14.06;70.12;101398.88;5013057;28;20025;-89
2023/05/15 00:56:10;;;;;;;30.27;20.88;;;;;;;13.93;70.30;101393.25;5030528;28;20025;-88
2023/05/15 00:58:36;;;;;;;31.48;21.75;;;;;;;13.93;70.12;101402.09;5028941;28;20081;-88
2023/05/15 01:01:01;;;;;;;31.58;21.20;;;;;;;13.82;70.88;101399.06;5031134;28;20025;-88
2023/05/15 01:03:27;;;;;;;31.98;20.55;;;;;;;13.90;69.95;101388.09;5030784;28;20503;-88
2023/05/15 01:05:53;;;;;;;31.88;20.92;;;;;;;13.87;70.09;101385.56;5020409;28;20511;-88
2023/05/15 01:08:40;;;;;;;29.33;21.00;;;;;;;13.92;69.80;101389.75;5038031;28;20032;-88
2023/05/15 01:11:07;;;;;;;35.00;20.77;;;;;;;13.82;70.21;101392.91;5033301;28;20025;-89
2023/05/15 01:13:32;;;;;;;30.40;20.33;;;;;;;13.75;70.65;101384.31;5031221;28;20062;-89
2023/05/15 01:15:58;;;;;;;34.38;21.70;;;;;;;13.74;70.61;101375.47;5015975;28;20029;-88
2023/05/15 01:18:30;;;;;;;32.90;20.65;;;;;;;13.77;70.49;101380.66;5035219;28;20091;-88
2023/05/15 01:21:05;;;;;;;;;;;;;;;14.17;67.40;101384.16;5014869;28;20021;-88
2023/05/15 01:23:52;;;;;;;33.92;20.33;;;;;;;13.94;70.25;101387.00;5028813;28;20400;-89
2023/05/15 01:26:38;;;;;;;32.97;20.52;;;;;;;13.94;69.63;101382.56;5031997;28;20043;-88
2023/05/15 01:29:20;;;;;;;34.53;21.67;;;;;;;13.78;70.43;101385.03;5016657;28;20040;-88
2023/05/15 01:31:51;;;;;;;31.95;21.08;;;;;;;13.75;70.37;101379.00;5025540;28;20053;-88
2023/05/15 01:34:21;;;;;;;32.53;21.80;;;;;;;13.71;70.23;101380.94;5029023;28;20049;-88
2023/05/15 01:36:57;;;;;;;34.15;20.20;;;;;;;13.67;70.72;101371.38;5016304;28;20423;-88
2023/05/15 01:39:26;;;;;;;35.72;23.00;;;;;;;13.60;71.32;101369.91;5030636;28;20546;-89
2023/05/15 01:42:02;;;;;;;33.15;21.55;;;;;;;13.58;70.55;101371.78;5030196;28;20033;-88
2023/05/15 01:44:31;;;;;;;34.83;21.80;;;;;;;13.56;70.81;101367.47;5032827;28;20508;-88
2023/05/15 01:47:07;;;;;;;35.83;22.38;;;;;;;13.58;70.99;101374.44;5032030;28;20021;-88
2023/05/15 01:49:34;;;;;;;32.40;21.83;;;;;;;13.49;70.36;101372.19;5033076;28;20050;-88
2023/05/15 01:52:12;;;;;;;34.20;21.73;;;;;;;13.41;70.68;101369.88;5030398;28;20021;-88
2023/05/15 01:54:38;;;;;;;38.30;23.45;;;;;;;13.36;71.43;101373.66;5018815;28;20036;-88
2023/05/15 01:57:05;;;;;;;36.30;21.70;;;;;;;13.33;71.16;101366.66;5030249;28;20037;-88
2023/05/15 01:59:32;;;;;;;35.13;22.23;;;;;;;13.27;71.47;101366.94;5028918;28;20092;-88
2023/05/15 02:01:58;;;;;;;32.85;21.20;;;;;;;13.21;71.12;101354.75;5015207;28;20112;-88
2023/05/15 02:04:25;;;;;;;36.25;22.50;;;;;;;13.23;71.44;101360.91;5021244;28;20032;-88
2023/05/15 02:06:52;;;;;;;36.72;21.98;;;;;;;13.30;71.50;101360.66;5028555;28;20029;-88
2023/05/15 02:09:19;;;;;;;35.00;21.92;;;;;;;13.22;71.04;101364.47;5025699;28;20047;-89
2023/05/15 02:11:46;;;;;;;35.72;23.48;;;;;;;13.24;71.15;101364.41;5031370;28;20775;-88
2023/05/15 02:14:13;;;;;;;38.45;22.25;;;;;;;13.20;71.09;101366.31;5026830;28;20079;-88
2023/05/15 02:16:38;;;;;;;35.75;22.25;;;;;;;13.27;71.96;101361.63;5015761;28;20400;-88
2023/05/15 02:19:04;;;;;;;30.77;21.55;;;;;;;13.11;71.18;101361.41;5028011;28;20342;-88
2023/05/15 02:21:29;;;;;;;35.35;23.15;;;;;;;13.12;71.72;101357.81;5031593;28;20036;-88
2023/05/15 02:23:54;;;;;;;32.95;22.30;;;;;;;13.24;71.33;101360.00;5026101;28;20025;-88
2023/05/15 02:26:45;;;;;;;38.55;23.23;;;;;;;13.14;71.01;101357.75;5026856;28;20016;-88
2023/05/15 02:29:54;;;;;;;35.28;22.17;;;;;;;13.29;70.29;101367.75;5029650;28;20037;-89
2023/05/15 02:32:38;;;;;;;34.55;21.75;;;;;;;13.05;71.85;101358.97;4966610;28;20034;-88
2023/05/15 02:35:12;;;;;;;34.92;21.70;;;;;;;12.95;72.26;101363.81;5023437;28;20037;-88
2023/05/15 02:37:40;;;;;;;36.90;22.20;;;;;;;12.91;71.93;101358.69;5028924;28;20033;-88
2023/05/15 02:40:10;;;;;;;35.55;23.23;;;;;;;12.88;72.33;101358.84;5028191;28;20129;-88
2023/05/15 02:42:37;;;;;;;33.25;21.75;;;;;;;12.92;72.02;101363.97;5025167;28;20044;-88
2023/05/15 02:45:04;;;;;;;36.20;23.33;;;;;;;12.86;72.25;101366.00;5028266;28;20480;-88
2023/05/15 02:47:31;;;;;;;36.20;23.35;;;;;;;12.76;72.82;101371.69;5031610;28;20064;-89
2023/05/15 02:49:58;;;;;;;39.28;23.52;;;;;;;12.80;72.34;101353.00;5008238;28;20626;-88
2023/05/15 02:52:23;;;;;;;39.38;24.27;;;;;;;12.83;72.80;101371.44;5007415;28;20041;-89
2023/05/15 02:54:49;;;;;;;36.88;23.67;;;;;;;12.88;72.41;101372.13;5008398;28;20053;-88
2023/05/15 02:57:14;;;;;;;40.03;24.20;;;;;;;12.83;72.22;101367.00;5007795;28;20026;-89
2023/05/15 02:59:40;;;;;;;39.15;24.33;;;;;;;12.76;72.84;101373.47;5006467;28;20030;-88
2023/05/15 03:02:05;;;;;;;41.50;24.27;;;;;;;12.71;72.45;101363.03;5007420;28;20421;-89
2023/05/15 03:04:30;;;;;;;41.50;25.15;;;;;;;12.74;72.17;101359.41;5006537;28;20030;-89
2023/05/15 03:06:56;;;;;;;42.28;25.55;;;;;;;12.70;71.83;101358.66;5008342;28;20030;-89
2023/05/15 03:09:21;;;;;;;46.22;25.27;;;;;;;12.65;72.15;101354.47;5007819;28;20032;-89
2023/05/15 03:11:46;;;;;;;45.35;27.60;;;;;;;12.63;72.31;101359.81;5008384;28;20056;-88
2023/05/15 03:14:11;;;;;;;45.70;26.15;;;;;;;12.59;72.33;101347.66;5003605;28;20029;-88
2023/05/15 03:16:37;;;;;;;43.58;26.60;;;;;;;12.53;72.49;101353.16;5006543;28;20112;-89
2023/05/15 03:19:03;;;;;;;45.58;26.90;;;;;;;12.49;72.94;101354.22;5008112;28;20025;-88
2023/05/15 03:21:28;;;;;;;46.03;26.58;;;;;;;12.50;72.96;101358.63;5007798;28;20144;-88
2023/05/15 03:23:53;;;;;;;45.67;26.52;;;;;;;12.49;72.90;101362.16;5007753;28;20109;-88
2023/05/15 03:26:19;;;;;;;43.67;25.65;;;;;;;12.47;72.99;101356.06;5007997;28;20544;-88
2023/05/15 03:28:44;;;;;;;45.33;26.30;;;;;;;12.39;73.35;101350.22;5008317;28;20030;-88
2023/05/15 03:31:10;;;;;;;45.13;26.95;;;;;;;12.42;73.09;101361.56;5008018;28;20084;-88
2023/05/15 03:33:36;;;;;;;45.30;25.90;;;;;;;12.35;73.38;101349.47;5009072;28;20489;-88
2023/05/15 03:36:02;;;;;;;46.33;26.33;;;;;;;12.30;73.17;101353.22;5004843;28;20121;-88
2023/05/15 03:38:27;;;;;;;43.13;25.77;;;;;;;12.30;73.50;101358.53;5008991;28;20551;-88
2023/05/15 03:40:55;;;;;;;47.42;26.00;;;;;;;12.25;73.38;101348.97;5008704;28;20376;-88
2023/05/15 03:43:20;;;;;;;47.03;26.98;;;;;;;12.17;73.85;101350.16;5014661;28;20098;-88
2023/05/15 03:45:45;;;;;;;45.30;27.27;;;;;;;12.18;73.68;101344.84;5005723;28;20021;-88
2023/05/15 03:48:11;;;;;;;47.97;26.30;;;;;;;12.19;73.38;101348.34;5007078;28;20033;-88
2023/05/15 03:50:36;;;;;;;43.97;26.10;;;;;;;12.17;73.60;101347.53;5011304;28;20026;-88
2023/05/15 03:53:01;;;;;;;43.88;26.40;;;;;;;12.18;73.76;101341.31;5024074;28;20024;-88
2023/05/15 03:55:27;;;;;;;45.60;25.88;;;;;;;12.27;73.50;101350.72;5027386;28;20026;-88
2023/05/15 03:57:52;;;;;;;49.33;27.52;;;;;;;12.30;73.08;101347.91;5024562;28;20025;-88
2023/05/15 04:00:17;;;;;;;44.58;25.38;;;;;;;12.21;72.76;101343.84;5024672;28;20052;-88
2023/05/15 04:02:43;;;;;;;45.65;26.35;;;;;;;12.23;72.73;101342.88;5024438;28;20044;-88
2023/05/15 04:05:08;;;;;;;41.40;25.33;;;;;;;12.24;72.73;101346.38;5028312;28;20025;-88
2023/05/15 04:07:35;;;;;;;42.15;24.55;;;;;;;12.19;72.91;101335.94;5027546;28;20071;-88
2023/05/15 04:10:01;;;;;;;45.55;25.05;;;;;;;12.18;73.00;101342.19;5026664;28;20068;-87
2023/05/15 04:12:28;;;;;;;45.85;26.70;;;;;;;12.21;72.96;101342.03;5013880;28;20022;-88
2023/05/15 04:14:55;;;;;;;45.80;25.83;;;;;;;12.21;72.76;101342.03;5025134;28;20021;-88
2023/05/15 04:17:20;;;;;;;45.08;25.02;;;;;;;12.20;73.11;101340.31;5011628;28;20060;-88
2023/05/15 04:19:46;;;;;;;49.13;26.48;;;;;;;12.18;73.44;101336.03;5027721;28;20063;-88
2023/05/15 04:22:12;;;;;;;46.80;25.25;;;;;;;12.18;73.28;101343.97;5025415;28;20563;-88
2023/05/15 04:24:38;;;;;;;53.03;26.33;;;;;;;12.21;73.18;101343.84;5022194;28;20065;-87
2023/05/15 04:27:03;;;;;;;45.63;25.77;;;;;;;12.30;72.70;101345.25;5025757;28;20021;-88
2023/05/15 04:29:29;;;;;;;47.70;25.65;;;;;;;12.33;73.02;101342.50;5027715;28;20033;-88
2023/05/15 04:31:54;;;;;;;52.28;28.52;;;;;;;12.34;73.26;101342.44;5024048;28;20038;-88
2023/05/15 04:34:19;;;;;;;47.67;26.80;;;;;;;12.39;73.47;101344.91;5023371;28;20033;-88
2023/05/15 04:36:44;;;;;;;44.75;25.75;;;;;;;12.37;73.06;101352.94;5008763;28;20387;-89
2023/05/15 04:39:10;;;;;;;46.95;25.27;;;;;;;12.33;72.78;101361.91;5024357;28;20029;-88
2023/05/15 04:41:35;;;;;;;49.40;27.30;;;;;;;12.30;73.29;101351.44;5023856;28;20021;-88
2023/05/15 04:44:00;;;;;;;46.03;26.42;;;;;;;12.35;72.94;101362.72;5007959;28;20450;-88
2023/05/15 04:46:27;;;;;;;47.72;26.27;;;;;;;12.33;72.91;101366.38;5026864;28;20032;-88
2023/05/15 04:48:53;;;;;;;48.60;26.10;;;;;;;12.27;73.37;101366.63;5025336;28;20049;-88
2023/05/15 04:51:18;;;;;;;48.80;26.10;;;;;;;12.35;73.27;101375.97;5005924;28;20080;-88
2023/05/15 04:53:43;;;;;;;46.88;24.85;;;;;;;12.36;72.60;101382.16;5006952;28;20026;-88
2023/05/15 04:56:09;;;;;;;46.97;25.60;;;;;;;12.28;74.10;101381.59;5006302;28;20026;-88
2023/05/15 04:58:34;;;;;;;49.13;25.90;;;;;;;12.23;74.10;101374.69;5007844;28;20042;-88
2023/05/15 05:00:59;;;;;;;45.97;24.67;;;;;;;12.48;72.63;101387.84;5005641;28;20030;-88
2023/05/15 05:03:24;;;;;;;45.00;24.25;;;;;;;12.39;72.79;101382.88;5001235;28;20436;-87
2023/05/15 05:05:50;;;;;;;43.38;24.80;;;;;;;12.44;73.01;101380.91;5009604;28;20033;-89
2023/05/15 05:08:15;;;;;;;45.22;24.63;;;;;;;12.49;72.54;101388.69;5007595;28;20021;-88
2023/05/15 05:10:40;;;;;;;42.97;24.60;;;;;;;12.45;73.84;101387.06;5009292;28;20034;-88
2023/05/15 05:13:06;;;;;;;42.17;25.40;;;;;;;12.46;73.09;101394.13;5004235;28;20378;-88
2023/05/15 05:15:31;;;;;;;45.47;24.88;;;;;;;12.56;72.71;101390.19;5006078;28;20022;-88
2023/05/15 05:17:56;;;;;;;43.75;24.17;;;;;;;12.76;72.25;101389.38;5008898;28;20033;-88
2023/05/15 05:20:21;;;;;;;47.17;24.70;;;;;;;12.68;72.14;101392.38;5008703;28;20100;-88
2023/05/15 05:22:47;;;;;;;43.22;24.65;;;;;;;12.63;71.68;101380.19;5004888;28;20057;-88
2023/05/15 05:25:12;;;;;;;41.53;23.90;;;;;;;12.77;71.84;101385.81;5006849;28;20030;-88
2023/05/15 05:27:37;;;;;;;42.83;24.25;;;;;;;12.84;71.88;101389.09;4999383;28;20034;-88
2023/05/15 05:30:03;;;;;;;46.88;25.02;;;;;;;12.89;71.26;101381.78;5006636;28;20010;-88
2023/05/15 05:32:28;;;;;;;45.25;24.90;;;;;;;12.86;70.67;101400.50;5007229;28;20646;-88
2023/05/15 05:34:53;;;;;;;42.50;23.88;;;;;;;12.88;71.58;101406.63;5004280;28;20497;-88
2023/05/15 05:37:19;;;;;;;40.80;24.05;;;;;;;12.95;71.27;101400.13;5007627;28;20056;-88
2023/05/15 05:39:45;;;;;;;43.90;24.38;;;;;;;13.01;71.49;101405.19;5011450;28;20515;-88
2023/05/15 05:42:11;;;;;;;40.28;23.60;;;;;;;13.04;70.58;101402.38;5008525;28;20025;-87
2023/05/15 05:44:36;;;;;;;41.10;23.50;;;;;;;13.02;70.58;101409.56;5005829;28;20108;-88
2023/05/15 05:47:01;;;;;;;40.22;23.67;;;;;;;12.88;70.38;101407.47;5010141;28;20033;-89
2023/05/15 05:49:26;;;;;;;42.33;22.75;;;;;;;12.89;70.29;101414.50;5007524;28;20061;-89
2023/05/15 05:51:52;;;;;;;41.70;22.40;;;;;;;12.88;69.99;101419.88;5013122;28;20030;-88
2023/05/15 05:54:17;;;;;;;42.08;24.77;;;;;;;12.87;70.33;101421.69;5003170;28;20029;-88
2023/05/15 05:56:42;;;;;;;40.78;23.27;;;;;;;12.92;70.29;101409.09;5001936;28;20018;-88
2023/05/15 05:59:08;;;;;;;40.92;23.75;;;;;;;12.96;69.98;101412.44;5008724;28;20061;-88
2023/05/15 06:01:33;;;;;;;42.53;24.88;;;;;;;12.98;69.40;101405.31;5007696;28;20036;-88
2023/05/15 06:03:59;;;;;;;41.60;23.95;;;;;;;12.97;69.44;101403.59;5010571;28;20112;-88
2023/05/15 06:06:27;;;;;;;40.50;23.80;;;;;;;13.04;69.49;101415.66;5006548;28;20103;-88
2023/05/15 06:08:53;;;;;;;40.63;24.20;;;;;;;13.00;68.73;101408.75;5008982;28;20507;-88
2023/05/15 06:11:18;;;;;;;44.05;25.08;;;;;;;13.01;69.46;101408.72;5005514;28;20034;-88
2023/05/15 06:13:43;;;;;;;39.92;23.63;;;;;;;13.13;69.79;101402.00;5006709;28;20081;-88
2023/05/15 06:16:08;;;;;;;40.35;23.10;;;;;;;13.27;68.56;101410.28;5009815;28;20026;-88
2023/05/15 06:18:34;;;;;;;37.00;21.42;;;;;;;13.36;68.21;101424.97;5023318;28;20480;-88
2023/05/15 06:20:59;;;;;;;39.88;22.85;;;;;;;13.27;68.21;101420.06;5004937;28;20041;-88
2023/05/15 06:23:25;;;;;;;39.03;22.70;;;;;;;13.17;68.38;101416.03;5006319;28;20535;-88
2023/05/15 06:25:51;;;;;;;40.78;22.23;;;;;;;13.18;68.36;101412.44;5008014;28;20033;-88
2023/05/15 06:28:16;;;;;;;38.85;23.85;;;;;;;13.37;68.18;101421.38;5015761;28;20022;-88
2023/05/15 06:30:41;;;;;;;35.85;21.50;;;;;;;13.64;67.55;101411.38;5006382;28;20049;-87
2023/05/15 06:33:07;;;;;;;35.38;22.50;;;;;;;13.75;66.70;101411.75;5008120;28;20116;-87
2023/05/15 06:35:32;;;;;;;32.40;20.15;;;;;;;13.66;66.06;101413.94;5008623;28;20026;-88
2023/05/15 06:37:57;;;;;;;36.78;21.40;;;;;;;13.61;66.40;101413.28;5025232;28;20038;-88
2023/05/15 06:40:22;;;;;;;37.13;21.92;;;;;;;13.70;66.38;101407.56;5007975;28;20025;-88
2023/05/15 06:42:48;;;;;;;33.25;20.40;;;;;;;13.80;66.89;101403.56;5005939;28;20022;-88
2023/05/15 06:45:13;;;;;;;34.20;20.70;;;;;;;13.69;67.60;101404.06;5014613;28;20451;-88
2023/05/15 06:47:38;;;;;;;33.72;21.42;;;;;;;13.72;66.66;101405.72;5006572;28;20060;-88
2023/05/15 06:50:05;;;;;;;37.92;22.08;;;;;;;13.73;67.78;101413.63;5022651;28;20098;-88
2023/05/15 06:52:30;;;;;;;32.05;20.83;;;;;;;13.86;65.82;101408.63;5026796;28;20034;-88
2023/05/15 06:54:55;;;;;;;37.25;20.58;;;;;;;14.10;66.05;101413.78;5026578;28;20037;-88
2023/05/15 06:57:20;;;;;;;30.23;20.05;;;;;;;14.18;65.40;101409.84;5014645;28;20091;-88
2023/05/15 06:59:46;;;;;;;33.10;19.35;;;;;;;14.30;64.07;101414.56;5028045;28;20029;-88
2023/05/15 07:02:11;;;;;;;29.05;21.27;;;;;;;14.34;66.12;101404.66;5026148;28;20049;-88
2023/05/15 07:04:36;;;;;;;34.38;20.42;;;;;;;14.61;64.40;101407.84;5015849;28;20127;-88
2023/05/15 07:07:02;;;;;;;30.33;20.42;;;;;;;14.80;63.90;101410.47;5032009;28;20029;-89
2023/05/15 07:09:27;;;;;;;29.05;19.63;;;;;;;14.99;64.29;101402.44;5025909;28;20030;-88
2023/05/15 07:11:52;;;;;;;33.42;21.42;;;;;;;15.05;62.82;101402.13;5027734;28;20035;-88
2023/05/15 07:14:17;;;;;;;34.35;22.38;;;;;;;14.93;63.54;101408.09;5028417;28;20022;-88
2023/05/15 07:16:44;;;;;;;30.58;21.02;;;;;;;14.98;62.82;101408.72;5026107;28;20071;-88
2023/05/15 07:19:09;;;;;;;35.58;20.75;;;;;;;15.00;61.62;101414.81;5013431;28;20123;-88
2023/05/15 07:21:34;;;;;;;31.25;22.10;;;;;;;14.92;62.30;101403.69;5026804;28;20176;-88
2023/05/15 07:24:00;;;;;;;30.30;20.75;;;;;;;15.19;63.41;101410.28;5027046;28;20045;-88
2023/05/15 07:26:25;;;;;;;32.78;21.60;;;;;;;15.36;61.35;101411.25;5029705;28;20091;-89
2023/05/15 07:28:50;;;;;;;32.45;22.48;;;;;;;15.44;61.07;101409.94;5027640;28;20036;-89
2023/05/15 07:31:15;;;;;;;33.42;23.73;;;;;;;15.67;61.73;101411.44;5012039;28;20435;-88
2023/05/15 07:33:41;;;;;;;34.38;22.48;;;;;;;16.29;59.99;101396.53;5027523;28;20120;-87
2023/05/15 07:36:06;;;;;;;32.55;22.35;;;;;;;16.94;58.41;101393.78;5030892;28;20043;-89
2023/05/15 07:38:32;;;;;;;32.35;21.75;;;;;;;17.26;55.87;101399.06;5029875;28;20057;-89
2023/05/15 07:40:57;;;;;;;31.55;22.88;;;;;;;17.26;55.89;101397.25;5030432;28;20125;-89
2023/05/15 07:43:22;;;;;;;30.38;22.42;;;;;;;17.30;57.14;101398.78;5030014;28;20108;-89
2023/05/15 07:45:48;;;;;;;29.73;22.50;;;;;;;17.45;56.17;101394.31;5025853;28;20033;-89
2023/05/15 07:48:17;;;;;;;34.15;25.70;;;;;;;17.15;54.86;101405.00;5030128;28;20025;-88
2023/05/15 07:50:44;;;;;;;30.67;22.33;;;;;;;17.25;56.85;101399.97;5026193;28;20506;-89
2023/05/15 07:53:10;;;;;;;35.47;24.10;;;;;;;17.90;54.48;101389.81;5027584;28;20071;-89
2023/05/15 07:55:35;;;;;;;32.22;24.20;;;;;;;18.32;53.47;101398.78;5026167;28;20423;-90
2023/05/15 07:58:01;;;;;;;32.95;24.35;;;;;;;18.77;52.76;101397.66;5026500;28;20112;-89
2023/05/15 08:00:26;;;;;;;30.27;23.60;;;;;;;19.05;51.02;101394.00;5025552;28;20093;-90
2023/05/15 08:02:51;;;;;;;32.70;23.55;;;;;;;18.99;51.20;101388.22;5011997;28;20036;-90
2023/05/15 08:05:17;;;;;;;33.42;23.48;;;;;;;18.90;50.55;101384.31;5007219;28;20028;-89
2023/05/15 08:07:42;;;;;;;31.92;23.50;;;;;;;19.26;50.35;101390.88;5023074;28;20035;-90
2023/05/15 08:10:08;;;;;;;32.25;22.90;;;;;;;19.60;49.62;101389.44;5028739;28;20025;-89
2023/05/15 08:12:33;;;;;;;30.52;21.85;;;;;;;19.76;50.36;101387.38;5024446;28;20053;-90
2023/05/15 08:14:58;;;;;;;30.70;24.15;;;;;;;20.20;47.88;101372.66;5022807;28;20492;-89
2023/05/15 08:17:24;;;;;;;32.67;22.55;;;;;;;20.73;46.51;101385.84;5027555;28;20124;-90
2023/05/15 08:19:51;;;;;;;28.23;19.65;;;;;;;21.20;44.76;101384.09;5027509;28;20032;-89
2023/05/15 08:22:16;;;;;;;29.95;21.98;;;;;;;21.45;44.99;101389.34;5010091;28;20032;-89
2023/05/15 08:24:41;;;;;;;31.77;23.38;;;;;;;20.71;45.13;101380.59;5028693;28;20022;-88
2023/05/15 08:27:08;;;;;;;23.45;17.83;;;;;;;21.40;44.37;101378.06;5027786;28;20021;-89
2023/05/15 08:29:36;;;;;;;25.77;18.15;;;;;;;22.04;42.75;101380.22;5028846;28;20029;-89
2023/05/15 08:32:02;;;;;;;27.23;20.20;;;;;;;22.47;40.25;101374.94;5028162;28;20044;-89
2023/05/15 08:34:28;;;;;;;24.60;19.23;;;;;;;22.27;41.86;101375.72;5009989;28;20484;-90
2023/05/15 08:36:54;;;;;;;29.40;20.80;;;;;;;22.46;41.75;101377.78;5022009;28;20087;-89
2023/05/15 08:39:20;;;;;;;30.45;22.80;;;;;;;22.30;41.53;101384.41;5025575;28;20022;-89
2023/05/15 08:42:00;;;;;;;31.17;23.83;;;;;;;21.76;44.00;101377.03;5027745;28;20029;-89
2023/05/15 08:44:26;;;;;;;29.50;22.40;;;;;;;22.11;45.71;101381.47;5026037;28;20064;-88
2023/05/15 08:46:52;;;;;;;27.27;21.23;;;;;;;22.47;42.04;101387.56;5005390;28;20117;-88
2023/05/15 08:49:39;;;;;;;31.98;22.55;;;;;;;22.23;41.76;101379.63;5018069;28;20053;-88
2023/05/15 08:52:05;;;;;;;29.13;21.85;;;;;;;22.58;41.77;101374.94;5006796;28;20406;-88
2023/05/15 08:54:31;;;;;;;24.50;20.17;;;;;;;23.08;40.26;101380.69;5004750;28;20036;-89
2023/05/15 08:56:56;;;;;;;28.70;21.95;;;;;;;22.24;41.21;101375.97;5008251;28;20065;-89
2023/05/15 08:59:21;;;;;;;28.35;22.08;;;;;;;21.95;42.02;101380.97;5005697;28;20030;-89
2023/05/15 09:01:48;;;;;;;29.25;20.88;;;;;;;21.87;42.74;101374.38;4984755;28;20028;-91
2023/05/15 09:04:13;;;;;;;27.30;21.30;;;;;;;21.94;43.04;101373.88;5000368;28;20033;-91
2023/05/15 09:06:40;;;;;;;29.92;21.85;;;;;;;22.41;41.26;101380.84;4991579;28;20037;-89
2023/05/15 09:09:07;;;;;;;29.75;22.48;;;;;;;22.49;41.07;101377.53;5009442;28;20076;-88
2023/05/15 09:11:33;;;;;;;31.45;22.77;;;;;;;22.45;41.48;101376.06;5003100;28;20571;-88
2023/05/15 09:13:59;;;;;;;33.47;23.73;;;;;;;22.80;41.42;101384.81;5004718;28;20057;-88
2023/05/15 09:16:25;;;;;;;31.40;22.77;;;;;;;22.78;40.12;101384.06;5009215;28;20527;-88
2023/05/15 09:18:51;;;;;;;30.52;23.27;;;;;;;22.49;40.77;101377.53;4997564;28;20030;-88
2023/05/15 09:21:30;;;;;;;31.33;24.85;;;;;;;;;;5008589;28;20104;-88
2023/05/15 09:24:17;;;;;;;31.30;23.95;;;;;;;23.15;41.79;101378.31;5004027;28;20046;-88
2023/05/15 09:26:43;;;;;;;31.48;24.23;;;;;;;22.89;41.38;101370.56;5009179;28;20053;-89
2023/05/15 09:29:09;;;;;;;46.53;33.97;;;;;;;22.27;45.15;101368.50;5004592;28;20029;-89
2023/05/15 09:31:34;;;;;;;35.58;26.35;;;;;;;21.95;44.42;101372.88;5009712;28;20090;-89
2023/05/15 09:34:03;;;;;;;32.40;24.23;;;;;;;21.97;43.31;101369.09;5006954;28;20033;-88
2023/05/15 09:36:29;;;;;;;30.17;22.85;;;;;;;22.36;44.18;101369.59;5018087;28;20022;-88
2023/05/15 09:38:58;;;;;;;32.33;24.30;;;;;;;22.81;41.68;101375.72;5011221;28;20028;-89
2023/05/15 09:41:25;;;;;;;32.28;25.35;;;;;;;22.71;42.40;101380.19;5011231;28;20026;-89
2023/05/15 09:43:51;;;;;;;29.17;22.35;;;;;;;22.63;41.23;101375.41;5003862;28;20057;-89
2023/05/15 09:46:16;;;;;;;26.77;20.05;;;;;;;22.28;42.75;101367.50;5008179;28;20050;-90
2023/05/15 09:48:42;;;;;;;24.10;19.83;;;;;;;22.36;43.12;101356.97;5009784;28;20049;-89
2023/05/15 09:51:16;;;;;;;26.75;19.73;;;;;;;22.19;43.47;101365.56;4992527;28;20021;-88
2023/05/15 09:53:46;;;;;;;25.08;19.13;;;;;;;21.93;42.77;101367.63;5010215;28;20083;-88
2023/05/15 09:56:12;;;;;;;23.73;19.35;;;;;;;21.50;44.40;101359.41;4993572;28;20128;-88
2023/05/15 09:58:51;;;;;;;24.45;19.42;;;;;;;21.20;45.81;101367.94;5007364;28;20057;-88
2023/05/15 10:01:18;;;;;;;28.23;18.30;;;;;;;21.25;46.51;101368.44;5010651;28;20021;-90
2023/05/15 10:03:44;;;;;;;24.25;17.25;;;;;;;21.17;46.10;101368.19;4992567;28;20153;-90
2023/05/15 10:06:17;;;;;;;22.20;17.13;;;;;;;21.04;46.10;101379.03;5014158;28;20345;-90
2023/05/15 10:08:50;;;;;;;21.67;16.90;;;;;;;20.90;45.94;101372.00;5001885;28;20030;-87
2023/05/15 10:11:16;;;;;;;19.77;15.68;;;;;;;20.75;45.73;101376.69;5001461;28;20093;-89
2023/05/15 10:13:41;;;;;;;22.35;16.83;;;;;;;20.84;45.61;101378.69;5010721;28;20133;-89
2023/05/15 10:16:06;;;;;;;20.92;17.17;;;;;;;20.65;46.11;101372.94;5008071;28;20030;-89
2023/05/15 10:18:33;;;;;;;21.98;17.38;;;;;;;20.50;47.01;101380.31;4994043;28;20030;-86
2023/05/15 10:21:03;;;;;;;24.38;18.05;;;;;;;20.25;47.33;101380.38;5011331;28;20397;-88
2023/05/15 10:23:30;;;;;;;25.00;18.23;;;;;;;20.32;48.66;101384.31;5009110;28;20120;-90
2023/05/15 10:26:03;;;;;;;22.38;16.80;;;;;;;20.54;48.72;101380.97;5006772;28;20141;-89
2023/05/15 10:28:30;;;;;;;21.42;17.00;;;;;;;20.68;47.31;101391.53;5008767;28;20374;-89
2023/05/15 10:30:58;;;;;;;25.15;17.40;;;;;;;20.52;48.22;101394.53;5010073;28;20473;-89
2023/05/15 10:33:24;;;;;;;22.35;17.52;;;;;;;20.26;47.62;101372.19;5010944;28;20099;-89
2023/05/15 10:35:50;;;;;;;26.25;18.67;;;;;;;20.25;47.95;101391.13;5008245;28;20025;-88
2023/05/15 10:38:18;;;;;;;29.45;19.05;;;;;;;20.08;49.24;101393.16;4996109;28;20044;-86
2023/05/15 10:40:44;;;;;;;21.95;16.65;;;;;;;20.20;49.52;101386.06;5014278;28;20587;-87
2023/05/15 10:43:10;;;;;;;25.73;18.30;;;;;;;20.48;48.35;101393.03;4994211;28;20109;-89
2023/05/15 10:45:36;;;;;;;23.77;18.02;;;;;;;20.44;47.55;101382.59;4989877;28;20507;-89
2023/05/15 10:48:04;;;;;;;25.55;19.13;;;;;;;20.33;48.26;101378.84;4986192;28;20026;-88
2023/05/15 10:50:29;;;;;;;24.25;17.73;;;;;;;20.21;48.15;101379.72;5029516;28;20061;-89
2023/05/15 10:52:55;;;;;;;27.58;19.52;;;;;;;20.19;48.89;101381.69;5029098;28;20029;-88
2023/05/15 10:55:21;;;;;;;28.30;20.48;;;;;;;20.21;49.76;101381.56;5027004;28;20079;-87
2023/05/15 10:57:47;;;;;;;26.83;19.15;;;;;;;20.35;49.12;101384.97;5028808;28;20025;-88
2023/05/15 11:00:21;;;;;;;23.88;18.02;;;;;;;20.26;48.75;101391.00;5032148;28;20048;-89
2023/05/15 11:02:47;;;;;;;29.98;20.20;;;;;;;20.05;49.47;101385.34;5031111;28;20503;-88
2023/05/15 11:05:13;;;;;;;26.75;19.30;;;;;;;20.18;50.37;101390.69;5010828;28;20038;-89
2023/05/15 11:07:39;;;;;;;28.25;21.10;;;;;;;20.15;49.96;101393.59;5030078;28;20512;-89